createdAt,value
2016-11-10T00:00:12.994Z,596.5
2016-11-10T00:01:12.976Z,596.09
2016-11-10T00:02:12.981Z,598.84
2016-11-10T00:03:12.985Z,599.77
2016-11-10T00:04:13.029Z,601.84
2016-11-10T00:05:12.958Z,602.94
2016-11-10T00:06:13.077Z,604.68
2016-11-10T00:07:13.019Z,605.78
2016-11-10T00:08:12.978Z,606.5
2016-11-10T00:09:12.987Z,606.91
2016-11-10T00:10:12.978Z,606.52
2016-11-10T00:11:13.062Z,606.93
2016-11-10T00:12:12.981Z,606.35
2016-11-10T00:13:13.125Z,606.18
2016-11-10T00:14:13.004Z,605.66
2016-11-10T00:15:12.979Z,605.3
2016-11-10T00:16:13.001Z,604.78
2016-11-10T00:17:12.984Z,604.73
2016-11-10T00:18:13.013Z,605.26
2016-11-10T00:19:13.041Z,605.37
2016-11-10T00:20:13.000Z,604.58
2016-11-10T00:21:12.985Z,604.58
2016-11-10T00:22:13.005Z,602.6
2016-11-10T00:23:12.992Z,600.98
2016-11-10T00:24:13.032Z,599.33
2016-11-10T00:25:12.988Z,598.59
2016-11-10T00:26:13.045Z,597.52
2016-11-10T00:27:12.984Z,596.25
2016-11-10T00:28:13.007Z,595.38
2016-11-10T00:29:13.057Z,594.61
2016-11-10T00:30:13.010Z,594.09
2016-11-10T00:31:13.045Z,594.7
2016-11-10T00:32:13.013Z,593.53
2016-11-10T00:33:12.996Z,593.2
2016-11-10T00:34:13.015Z,592.09
2016-11-10T00:35:13.040Z,590.98
2016-11-10T00:36:13.030Z,590.15
2016-11-10T00:37:13.018Z,590.76
2016-11-10T00:38:13.005Z,590.58
2016-11-10T00:39:13.053Z,591.17
2016-11-10T00:40:13.018Z,591.69
2016-11-10T00:41:13.022Z,592.26
2016-11-10T00:42:12.998Z,594.16
2016-11-10T00:43:13.020Z,594.74
2016-11-10T00:44:13.013Z,596.98
2016-11-10T00:45:13.019Z,597.69
2016-11-10T00:46:13.022Z,599.76
2016-11-10T00:47:13.015Z,601.22
2016-11-10T00:48:13.022Z,602.19
2016-11-10T00:49:13.017Z,603.66
2016-11-10T00:50:13.040Z,604.64
2016-11-10T00:51:13.002Z,604.62
2016-11-10T00:52:13.008Z,603.18
2016-11-10T00:53:13.059Z,603.05
2016-11-10T00:54:13.052Z,604.22
2016-11-10T00:55:13.041Z,604.17
2016-11-10T00:56:13.005Z,605.72
2016-11-10T00:57:13.034Z,607.06
2016-11-10T00:58:13.004Z,607.79
2016-11-10T00:59:13.004Z,608.42
2016-11-10T01:00:13.021Z,608.87
2016-11-10T01:01:13.244Z,609.24
2016-11-10T01:02:13.009Z,610.01
2016-11-10T01:03:13.021Z,610.21
2016-11-10T01:04:13.004Z,610.37
2016-11-10T01:05:13.004Z,611.72
2016-11-10T01:06:13.011Z,612.26
2016-11-10T01:07:13.019Z,611.8
2016-11-10T01:08:13.234Z,611.28
2016-11-10T01:09:13.043Z,610.34
2016-11-10T01:10:13.020Z,609.16
2016-11-10T01:11:13.015Z,608.77
2016-11-10T01:12:13.017Z,608.39
2016-11-10T01:13:13.018Z,608.09
2016-11-10T01:14:13.023Z,607
2016-11-10T01:15:13.036Z,606.61
2016-11-10T01:16:13.028Z,604.74
2016-11-10T01:17:13.025Z,604.76
2016-11-10T01:18:13.091Z,604.6
2016-11-10T01:19:13.031Z,603.7
2016-11-10T01:20:13.039Z,603.49
2016-11-10T01:21:13.023Z,603.9
2016-11-10T01:22:13.021Z,603.51
2016-11-10T01:23:13.038Z,603.94
2016-11-10T01:24:13.053Z,602.15
2016-11-10T01:25:13.017Z,599.48
2016-11-10T01:26:13.039Z,598.65
2016-11-10T01:27:13.040Z,597.49
2016-11-10T01:28:13.023Z,597.32
2016-11-10T01:29:13.040Z,597.93
2016-11-10T01:30:13.028Z,597.36
2016-11-10T01:31:13.042Z,598.71
2016-11-10T01:32:13.174Z,597.75
2016-11-10T01:33:13.041Z,597.77
2016-11-10T01:34:13.055Z,597.43
2016-11-10T01:35:13.042Z,598.6
2016-11-10T01:36:13.036Z,597.27
2016-11-10T01:37:13.049Z,597.43
2016-11-10T01:38:13.020Z,598
2016-11-10T01:39:13.028Z,598.72
2016-11-10T01:40:13.181Z,600.04
2016-11-10T01:41:13.046Z,600.02
2016-11-10T01:42:13.034Z,600.61
2016-11-10T01:43:13.055Z,601.32
2016-11-10T01:44:13.048Z,601.94
2016-11-10T01:45:13.057Z,602.61
2016-11-10T01:46:13.047Z,604.68
2016-11-10T01:47:13.198Z,605.01
2016-11-10T01:48:13.042Z,604.12
2016-11-10T01:49:13.059Z,605.02
2016-11-10T01:50:13.046Z,604.3
2016-11-10T01:51:13.052Z,604.37
2016-11-10T01:52:13.145Z,603.05
2016-11-10T01:53:13.049Z,601.98
2016-11-10T01:54:13.068Z,600.5
2016-11-10T01:55:13.052Z,600.75
2016-11-10T01:56:13.031Z,601.46
2016-11-10T01:57:13.142Z,601.55
2016-11-10T01:58:13.052Z,600.44
2016-11-10T01:59:13.067Z,599.34
2016-11-10T02:00:13.069Z,598.57
2016-11-10T02:01:13.060Z,599.31
2016-11-10T02:02:13.186Z,599.71
2016-11-10T02:03:13.063Z,598.59
2016-11-10T02:04:13.149Z,597.09
2016-11-10T02:05:13.056Z,594.9
2016-11-10T02:06:13.046Z,593.56
2016-11-10T02:07:13.055Z,592.31
2016-11-10T02:08:13.060Z,591.52
2016-11-10T02:09:13.133Z,589.91
2016-11-10T02:10:13.109Z,590.43
2016-11-10T02:11:13.059Z,590.23
2016-11-10T02:12:13.053Z,589.84
2016-11-10T02:13:13.157Z,590.06
2016-11-10T02:14:13.058Z,591.37
2016-11-10T02:15:13.054Z,591.67
2016-11-10T02:16:13.060Z,590.93
2016-11-10T02:17:13.059Z,590.58
2016-11-10T02:18:13.061Z,589.81
2016-11-10T02:19:13.074Z,589.82
2016-11-10T02:20:13.062Z,589.89
2016-11-10T02:21:13.100Z,590.8
2016-11-10T02:22:13.053Z,592.14
2016-11-10T02:23:13.069Z,593.77
2016-11-10T02:24:13.068Z,594.3
2016-11-10T02:25:13.065Z,595.42
2016-11-10T02:26:13.084Z,596.14
2016-11-10T02:27:13.382Z,597.82
2016-11-10T02:28:13.066Z,599.49
2016-11-10T02:29:13.074Z,600.84
2016-11-10T02:30:13.074Z,602.28
2016-11-10T02:31:13.322Z,603.41
2016-11-10T02:32:13.067Z,605.28
2016-11-10T02:33:13.076Z,606
2016-11-10T02:34:13.084Z,607.12
2016-11-10T02:35:13.074Z,608.36
2016-11-10T02:36:13.082Z,609.13
2016-11-10T02:37:13.063Z,610.27
2016-11-10T02:38:13.078Z,610.27
2016-11-10T02:39:13.070Z,609.36
2016-11-10T02:40:13.082Z,610.27
2016-11-10T02:41:13.073Z,610.28
2016-11-10T02:42:13.069Z,611.04
2016-11-10T02:43:13.081Z,611.44
2016-11-10T02:44:13.077Z,613.15
2016-11-10T02:45:13.084Z,612.72
2016-11-10T02:46:13.086Z,614.3
2016-11-10T02:47:13.088Z,615.35
2016-11-10T02:48:13.081Z,615.95
2016-11-10T02:49:13.082Z,616.7
2016-11-10T02:50:13.087Z,617.26
2016-11-10T02:51:13.085Z,618.22
2016-11-10T02:52:13.087Z,619.68
2016-11-10T02:53:13.144Z,620.25
2016-11-10T02:54:13.088Z,620.8
2016-11-10T02:55:13.113Z,620.68
2016-11-10T02:56:13.085Z,621.07
2016-11-10T02:57:13.176Z,620.47
2016-11-10T02:58:13.148Z,620.34
2016-11-10T02:59:13.183Z,619.98
2016-11-10T03:00:13.096Z,620
2016-11-10T03:01:13.152Z,620.75
2016-11-10T03:02:13.094Z,621.66
2016-11-10T03:03:13.110Z,622.38
2016-11-10T03:04:13.103Z,622.99
2016-11-10T03:05:13.094Z,623.58
2016-11-10T03:06:13.102Z,624.54
2016-11-10T03:07:13.100Z,625.24
2016-11-10T03:08:13.104Z,625.22
2016-11-10T03:09:13.101Z,625.02
2016-11-10T03:10:13.164Z,625.09
2016-11-10T03:11:13.094Z,625.47
2016-11-10T03:12:13.104Z,625.45
2016-11-10T03:13:13.097Z,625.47
2016-11-10T03:14:13.106Z,626.03
2016-11-10T03:15:13.096Z,626.35
2016-11-10T03:16:13.089Z,627.42
2016-11-10T03:17:13.101Z,628
2016-11-10T03:18:13.102Z,627.2
2016-11-10T03:19:13.101Z,627.25
2016-11-10T03:20:13.093Z,625.44
2016-11-10T03:21:13.122Z,625.67
2016-11-10T03:22:13.109Z,624.67
2016-11-10T03:23:13.100Z,625.07
2016-11-10T03:24:13.120Z,626
2016-11-10T03:25:13.112Z,625.8
2016-11-10T03:26:13.124Z,626.21
2016-11-10T03:27:13.109Z,626.73
2016-11-10T03:28:13.110Z,627.06
2016-11-10T03:29:13.119Z,627.26
2016-11-10T03:30:13.123Z,628.88
2016-11-10T03:31:13.136Z,628.9
2016-11-10T03:32:13.112Z,629.42
2016-11-10T03:33:13.120Z,630.16
2016-11-10T03:34:13.136Z,630.85
2016-11-10T03:35:13.107Z,631.42
2016-11-10T03:36:13.107Z,631.2
2016-11-10T03:37:13.119Z,631.78
2016-11-10T03:38:13.112Z,632.32
2016-11-10T03:39:13.120Z,631.87
2016-11-10T03:40:13.117Z,631.2
2016-11-10T03:41:13.126Z,631.95
2016-11-10T03:42:13.120Z,632.15
2016-11-10T03:43:13.132Z,632.69
2016-11-10T03:44:13.139Z,632.92
2016-11-10T03:45:13.135Z,633.85
2016-11-10T03:46:13.135Z,633.14
2016-11-10T03:47:13.123Z,633.66
2016-11-10T03:48:13.120Z,634.79
2016-11-10T03:49:13.127Z,634.16
2016-11-10T03:50:13.132Z,634.75
2016-11-10T03:51:13.126Z,634.57
2016-11-10T03:52:13.141Z,633.5
2016-11-10T03:53:13.134Z,633.61
2016-11-10T03:54:13.140Z,633.76
2016-11-10T03:55:13.146Z,635.22
2016-11-10T03:56:13.152Z,635.61
2016-11-10T03:57:13.145Z,636.15
2016-11-10T03:58:13.145Z,636.37
2016-11-10T03:59:13.148Z,636.68
2016-11-10T04:00:13.134Z,636.89
2016-11-10T04:01:13.140Z,637.08
2016-11-10T04:02:13.155Z,637.04
2016-11-10T04:03:13.142Z,637.31
2016-11-10T04:04:13.149Z,637.85
2016-11-10T04:05:13.146Z,638.09
2016-11-10T04:06:13.139Z,638.1
2016-11-10T04:07:13.147Z,637.91
2016-11-10T04:08:13.137Z,637.55
2016-11-10T04:09:13.156Z,637.96
2016-11-10T04:10:13.130Z,638.01
2016-11-10T04:11:13.148Z,637.8
2016-11-10T04:12:13.160Z,638.36
2016-11-10T04:13:13.153Z,638.1
2016-11-10T04:14:13.177Z,638.5
2016-11-10T04:15:13.137Z,638.85
2016-11-10T04:16:13.127Z,638.67
2016-11-10T04:17:13.133Z,638.64
2016-11-10T04:18:13.148Z,638.82
2016-11-10T04:19:13.147Z,639.01
2016-11-10T04:20:13.170Z,638.99
2016-11-10T04:21:13.149Z,638.99
2016-11-10T04:22:13.147Z,639.76
2016-11-10T04:23:13.134Z,640.16
2016-11-10T04:24:13.142Z,640.53
2016-11-10T04:25:13.148Z,641.3
2016-11-10T04:26:13.212Z,641.41
2016-11-10T04:27:13.142Z,641.15
2016-11-10T04:28:13.156Z,641.98
2016-11-10T04:29:13.157Z,642.71
2016-11-10T04:31:13.156Z,643.01
2016-11-10T04:32:13.167Z,643.2
2016-11-10T04:33:13.167Z,643.98
2016-11-10T04:34:13.162Z,643.01
2016-11-10T04:35:13.157Z,643.91
2016-11-10T04:36:13.157Z,643.76
2016-11-10T04:37:13.171Z,643.59
2016-11-10T04:38:13.154Z,643.22
2016-11-10T04:39:13.159Z,643.48
2016-11-10T04:40:13.157Z,643.47
2016-11-10T04:41:13.194Z,644.07
2016-11-10T04:42:13.157Z,643.68
2016-11-10T04:43:13.170Z,644.05
2016-11-10T04:44:13.165Z,644.44
2016-11-10T04:45:13.170Z,644.46
2016-11-10T04:46:13.166Z,644.64
2016-11-10T04:47:13.164Z,644.84
2016-11-10T04:48:13.166Z,645.94
2016-11-10T04:49:13.166Z,645.23
2016-11-10T04:50:13.164Z,644.87
2016-11-10T04:51:13.179Z,645.03
2016-11-10T04:52:13.172Z,645.96
2016-11-10T04:53:13.178Z,646.27
2016-11-10T04:54:13.184Z,646.64
2016-11-10T04:55:13.177Z,647.07
2016-11-10T04:56:13.191Z,646.84
2016-11-10T04:57:13.169Z,647.99
2016-11-10T04:58:13.176Z,647.62
2016-11-10T04:59:13.179Z,647.15
2016-11-10T05:00:13.188Z,647.67
2016-11-10T05:01:13.242Z,648.39
2016-11-10T05:02:13.177Z,647.69
2016-11-10T05:03:13.189Z,647.86
2016-11-10T05:04:13.211Z,648.03
2016-11-10T05:05:13.294Z,647.89
2016-11-10T05:06:13.463Z,648.64
2016-11-10T05:07:13.191Z,648.11
2016-11-10T05:08:13.185Z,648.01
2016-11-10T05:09:13.242Z,647.7
2016-11-10T05:10:13.491Z,646.95
2016-11-10T05:11:13.185Z,646.98
2016-11-10T05:12:13.172Z,646.82
2016-11-10T05:13:13.198Z,647.18
2016-11-10T05:14:13.175Z,647.9
2016-11-10T05:15:13.191Z,647.74
2016-11-10T05:16:13.197Z,647.52
2016-11-10T05:17:13.192Z,647.53
2016-11-10T05:18:13.182Z,647.37
2016-11-10T05:19:13.205Z,647.69
2016-11-10T05:20:13.181Z,647.36
2016-11-10T05:21:13.186Z,647.52
2016-11-10T05:22:13.192Z,647.04
2016-11-10T05:23:13.231Z,647.03
2016-11-10T05:24:13.192Z,647.23
2016-11-10T05:25:13.199Z,647.43
2016-11-10T05:26:13.189Z,647.3
2016-11-10T05:27:13.202Z,647.67
2016-11-10T05:28:13.202Z,648.03
2016-11-10T05:29:13.279Z,647.68
2016-11-10T05:30:13.208Z,648.19
2016-11-10T05:31:13.198Z,647.99
2016-11-10T05:32:13.189Z,648.56
2016-11-10T05:33:13.242Z,648.74
2016-11-10T05:34:13.190Z,648.78
2016-11-10T05:35:13.197Z,649.33
2016-11-10T05:36:13.219Z,648.6
2016-11-10T05:37:13.232Z,649.01
2016-11-10T05:38:13.201Z,649.58
2016-11-10T05:39:13.208Z,650.11
2016-11-10T05:40:13.209Z,649.75
2016-11-10T05:41:13.295Z,649.96
2016-11-10T05:42:13.212Z,650.2
2016-11-10T05:43:13.230Z,649.8
2016-11-10T05:44:13.225Z,650.64
2016-11-10T05:45:13.218Z,650.21
2016-11-10T05:46:13.225Z,649.98
2016-11-10T05:47:13.229Z,650.62
2016-11-10T05:48:13.222Z,650.2
2016-11-10T05:49:14.064Z,650.96
2016-11-10T05:50:13.213Z,650.79
2016-11-10T05:51:13.211Z,651.75
2016-11-10T05:52:13.208Z,652.36
2016-11-10T05:53:13.231Z,652.33
2016-11-10T05:54:13.219Z,651.79
2016-11-10T05:55:13.215Z,651.63
2016-11-10T05:56:13.232Z,652.01
2016-11-10T05:57:13.248Z,652.8
2016-11-10T05:58:13.244Z,652.82
2016-11-10T05:59:13.225Z,652.78
2016-11-10T06:00:13.295Z,652.09
2016-11-10T06:01:13.272Z,652.09
2016-11-10T06:02:13.234Z,652.49
2016-11-10T06:03:13.253Z,652.68
2016-11-10T06:04:13.245Z,651.98
2016-11-10T06:05:13.238Z,652.37
2016-11-10T06:06:13.235Z,652.09
2016-11-10T06:07:13.243Z,652.59
2016-11-10T06:08:13.253Z,652.16
2016-11-10T06:09:13.223Z,652.35
2016-11-10T06:10:13.231Z,652.23
2016-11-10T06:11:13.215Z,651.49
2016-11-10T06:12:13.229Z,652.44
2016-11-10T06:13:13.220Z,651.63
2016-11-10T06:14:13.245Z,651.83
2016-11-10T06:15:13.281Z,650.97
2016-11-10T06:16:13.237Z,651.37
2016-11-10T06:17:13.269Z,651.41
2016-11-10T06:18:13.228Z,651.24
2016-11-10T06:19:13.290Z,650.53
2016-11-10T06:20:13.234Z,651.06
2016-11-10T06:21:13.225Z,650.91
2016-11-10T06:22:13.241Z,650.17
2016-11-10T06:23:13.225Z,650.15
2016-11-10T06:24:13.246Z,650.57
2016-11-10T06:25:13.247Z,650.06
2016-11-10T06:26:13.244Z,649.54
2016-11-10T06:27:13.235Z,650.5
2016-11-10T06:28:13.260Z,649.46
2016-11-10T06:29:13.258Z,649.64
2016-11-10T06:30:13.281Z,649.51
2016-11-10T06:31:13.257Z,649.52
2016-11-10T06:32:13.228Z,649.35
2016-11-10T06:33:13.265Z,649.77
2016-11-10T06:34:13.260Z,649.78
2016-11-10T06:35:13.462Z,650.1
2016-11-10T06:36:13.256Z,649.54
2016-11-10T06:37:13.241Z,649.8
2016-11-10T06:38:13.301Z,649.77
2016-11-10T06:39:13.261Z,649.97
2016-11-10T06:40:13.243Z,649.57
2016-11-10T06:41:13.301Z,650.71
2016-11-10T06:42:13.245Z,650.71
2016-11-10T06:43:13.260Z,651.05
2016-11-10T06:44:13.277Z,650.92
2016-11-10T06:45:13.251Z,651.48
2016-11-10T06:46:13.247Z,651.51
2016-11-10T06:47:13.247Z,651.71
2016-11-10T06:48:13.247Z,651.36
2016-11-10T06:49:13.267Z,650.99
2016-11-10T06:50:13.260Z,650.59
2016-11-10T06:51:13.250Z,650.84
2016-11-10T06:52:13.273Z,651.39
2016-11-10T06:53:13.296Z,651.76
2016-11-10T06:54:13.330Z,651.19
2016-11-10T06:55:13.270Z,651.96
2016-11-10T06:56:13.271Z,652.3
2016-11-10T06:57:13.361Z,652.01
2016-11-10T06:58:13.250Z,652.71
2016-11-10T06:59:13.264Z,653.68
2016-11-10T07:00:13.260Z,653.83
2016-11-10T07:01:13.253Z,654.35
2016-11-10T07:02:13.269Z,654.18
2016-11-10T07:03:13.263Z,655.41
2016-11-10T07:04:13.290Z,656.49
2016-11-10T07:05:13.274Z,656.87
2016-11-10T07:06:13.260Z,657.1
2016-11-10T07:07:13.260Z,658
2016-11-10T07:08:13.264Z,658.41
2016-11-10T07:09:13.264Z,658.23
2016-11-10T07:10:13.268Z,658.56
2016-11-10T07:11:13.260Z,659.32
2016-11-10T07:12:13.259Z,659.92
2016-11-10T07:13:13.273Z,659.86
2016-11-10T07:14:13.280Z,660.35
2016-11-10T07:15:13.291Z,661.39
2016-11-10T07:16:13.263Z,661.53
2016-11-10T07:17:13.277Z,663.07
2016-11-10T07:18:13.273Z,662.53
2016-11-10T07:19:13.280Z,663.44
2016-11-10T07:20:13.276Z,663.97
2016-11-10T07:21:13.266Z,664.55
2016-11-10T07:22:13.277Z,664.22
2016-11-10T07:23:13.261Z,664.82
2016-11-10T07:24:13.285Z,665.58
2016-11-10T07:25:13.263Z,665.92
2016-11-10T07:26:13.325Z,665.36
2016-11-10T07:27:13.344Z,665.58
2016-11-10T07:28:13.270Z,665.99
2016-11-10T07:29:13.331Z,666.99
2016-11-10T07:30:13.280Z,667.02
2016-11-10T07:31:13.266Z,666.99
2016-11-10T07:32:13.266Z,667.76
2016-11-10T07:33:13.283Z,667.57
2016-11-10T07:34:13.287Z,667.96
2016-11-10T07:35:13.284Z,668.51
2016-11-10T07:36:13.284Z,668.36
2016-11-10T07:37:13.291Z,668.87
2016-11-10T07:38:13.277Z,669.62
2016-11-10T07:39:13.293Z,670.16
2016-11-10T07:40:13.279Z,670.32
2016-11-10T07:41:13.282Z,671.2
2016-11-10T07:42:13.277Z,671.17
2016-11-10T07:43:13.288Z,672.37
2016-11-10T07:44:13.288Z,672.8
2016-11-10T07:45:13.286Z,673.83
2016-11-10T07:46:13.284Z,674.39
2016-11-10T07:47:13.295Z,674.9
2016-11-10T07:48:13.284Z,675.42
2016-11-10T07:49:13.325Z,675.99
2016-11-10T07:50:13.282Z,676.12
2016-11-10T07:51:13.301Z,676.85
2016-11-10T07:52:13.279Z,676.13
2016-11-10T07:53:13.296Z,677.14
2016-11-10T07:54:13.295Z,677.72
2016-11-10T07:55:13.292Z,677.21
2016-11-10T07:56:13.286Z,678.12
2016-11-10T07:57:13.292Z,677.57
2016-11-10T07:58:13.289Z,678.48
2016-11-10T07:59:13.293Z,678.49
2016-11-10T08:00:13.288Z,679.33
2016-11-10T08:01:13.295Z,679.54
2016-11-10T08:02:13.300Z,680.27
2016-11-10T08:03:13.302Z,680.33
2016-11-10T08:04:13.300Z,681.48
2016-11-10T08:05:13.288Z,681.37
2016-11-10T08:06:13.299Z,682.94
2016-11-10T08:07:13.346Z,682.76
2016-11-10T08:08:13.298Z,683.68
2016-11-10T08:09:13.306Z,685.23
2016-11-10T08:10:13.567Z,686.23
2016-11-10T08:11:13.305Z,686.97
2016-11-10T08:12:13.323Z,688.13
2016-11-10T08:13:13.301Z,688.83
2016-11-10T08:14:13.305Z,690.4
2016-11-10T08:15:13.298Z,691.54
2016-11-10T08:16:13.304Z,692.6
2016-11-10T08:17:13.312Z,693.47
2016-11-10T08:18:13.309Z,694.51
2016-11-10T08:19:13.307Z,695.21
2016-11-10T08:20:13.307Z,696.22
2016-11-10T08:21:13.324Z,697.44
2016-11-10T08:22:13.311Z,698.97
2016-11-10T08:23:13.321Z,700.14
2016-11-10T08:24:13.325Z,700.8
2016-11-10T08:25:13.328Z,702.71
2016-11-10T08:26:13.340Z,704.73
2016-11-10T08:27:13.318Z,705.2
2016-11-10T08:28:14.120Z,707.04
2016-11-10T08:29:13.331Z,709.09
2016-11-10T08:30:13.336Z,710.23
2016-11-10T08:31:13.589Z,711.58
2016-11-10T08:32:13.321Z,712.12
2016-11-10T08:33:13.329Z,713.99
2016-11-10T08:34:13.310Z,714.68
2016-11-10T08:35:13.340Z,715.55
2016-11-10T08:36:13.347Z,715.64
2016-11-10T08:37:13.330Z,716.31
2016-11-10T08:38:13.339Z,717.05
2016-11-10T08:39:13.344Z,717.72
2016-11-10T08:40:13.343Z,719.21
2016-11-10T08:41:13.327Z,719.85
2016-11-10T08:42:13.345Z,721.37
2016-11-10T08:43:13.336Z,722.49
2016-11-10T08:44:13.324Z,723.83
2016-11-10T08:45:13.321Z,725.11
2016-11-10T08:46:13.329Z,727.25
2016-11-10T08:47:13.327Z,728.19
2016-11-10T08:48:13.330Z,730.37
2016-11-10T08:49:13.326Z,732
2016-11-10T08:50:13.330Z,734.43
2016-11-10T08:51:13.336Z,736.55
2016-11-10T08:52:13.327Z,739.04
2016-11-10T08:53:13.334Z,741.01
2016-11-10T08:54:13.340Z,742.98
2016-11-10T08:55:13.339Z,743.96
2016-11-10T08:56:13.329Z,745.36
2016-11-10T08:57:13.335Z,746.16
2016-11-10T08:58:13.337Z,747.28
2016-11-10T08:59:13.345Z,747.43
2016-11-10T09:00:13.365Z,748.08
2016-11-10T09:01:13.338Z,747.61
2016-11-10T09:02:13.364Z,747.16
2016-11-10T09:03:13.354Z,747.01
2016-11-10T09:04:13.354Z,746.89
2016-11-10T09:05:13.377Z,748.16
2016-11-10T09:06:13.370Z,748.78
2016-11-10T09:07:13.345Z,751.03
2016-11-10T09:08:15.572Z,752.8
2016-11-10T09:09:13.362Z,754.2
2016-11-10T09:10:13.363Z,755.46
2016-11-10T09:11:13.371Z,756.43
2016-11-10T09:12:13.357Z,758.37
2016-11-10T09:13:13.351Z,759.3
2016-11-10T09:14:13.390Z,759.45
2016-11-10T09:15:13.362Z,759.79
2016-11-10T09:16:13.362Z,760.74
2016-11-10T09:17:13.339Z,761.83
2016-11-10T09:18:13.346Z,763.44
2016-11-10T09:19:13.390Z,764.48
2016-11-10T09:20:13.364Z,765.12
2016-11-10T09:21:13.370Z,768.18
2016-11-10T09:22:13.373Z,768.59
2016-11-10T09:23:13.364Z,769.91
2016-11-10T09:24:13.408Z,771.47
2016-11-10T09:25:13.351Z,772.85
2016-11-10T09:26:13.371Z,773.81
2016-11-10T09:27:13.349Z,775.02
2016-11-10T09:28:13.358Z,776.16
2016-11-10T09:29:13.389Z,777.35
2016-11-10T09:30:13.361Z,778.47
2016-11-10T09:31:13.376Z,778.56
2016-11-10T09:32:13.385Z,780.6
2016-11-10T09:33:13.370Z,781.86
2016-11-10T09:34:13.383Z,782.94
2016-11-10T09:35:13.361Z,783.54
2016-11-10T09:36:13.366Z,784.44
2016-11-10T09:37:13.369Z,785.19
2016-11-10T09:38:13.430Z,784.25
2016-11-10T09:39:13.456Z,783.86
2016-11-10T09:40:13.394Z,782.27
2016-11-10T09:41:13.381Z,780.43
2016-11-10T09:42:13.373Z,779.69
2016-11-10T09:43:13.397Z,778.42
2016-11-10T09:44:13.389Z,776.74
2016-11-10T09:45:13.372Z,775.19
2016-11-10T09:46:13.368Z,773.96
2016-11-10T09:47:13.376Z,772.71
2016-11-10T09:48:13.369Z,771.37
2016-11-10T09:49:13.378Z,769.31
2016-11-10T09:50:13.371Z,766.77
2016-11-10T09:51:13.381Z,765.96
2016-11-10T09:52:13.373Z,765.54
2016-11-10T09:53:13.390Z,764.78
2016-11-10T09:54:13.376Z,763.66
2016-11-10T09:55:13.418Z,763.81
2016-11-10T09:56:13.389Z,764.65
2016-11-10T09:57:13.382Z,765.08
2016-11-10T09:58:13.355Z,765.57
2016-11-10T09:59:13.424Z,767
2016-11-10T10:00:13.406Z,768.93
2016-11-10T10:01:13.398Z,769.9
2016-11-10T10:02:13.384Z,770.63
2016-11-10T10:03:13.399Z,771.02
2016-11-10T10:04:13.424Z,770.41
2016-11-10T10:05:13.391Z,770.9
2016-11-10T10:06:13.407Z,769.81
2016-11-10T10:07:13.393Z,768.9
2016-11-10T10:08:13.391Z,767.17
2016-11-10T10:09:13.416Z,766.52
2016-11-10T10:10:13.378Z,765.76
2016-11-10T10:11:13.387Z,765
2016-11-10T10:12:13.393Z,765.03
2016-11-10T10:13:13.395Z,765.14
2016-11-10T10:14:13.417Z,764.5
2016-11-10T10:15:13.404Z,765.17
2016-11-10T10:16:13.404Z,764.7
2016-11-10T10:17:13.429Z,764.88
2016-11-10T10:18:13.435Z,764.26
2016-11-10T10:19:13.417Z,763.32
2016-11-10T10:20:13.408Z,762.69
2016-11-10T10:21:13.423Z,762.46
2016-11-10T10:22:13.459Z,761.34
2016-11-10T10:23:13.415Z,760.99
2016-11-10T10:24:13.423Z,760.38
2016-11-10T10:25:13.404Z,759.58
2016-11-10T10:26:13.403Z,757.98
2016-11-10T10:27:13.426Z,756.93
2016-11-10T10:28:13.461Z,755.78
2016-11-10T10:29:13.425Z,754.16
2016-11-10T10:30:13.406Z,752.86
2016-11-10T10:31:13.411Z,751.59
2016-11-10T10:32:13.423Z,749.85
2016-11-10T10:33:13.422Z,747.7
2016-11-10T10:34:13.402Z,746.47
2016-11-10T10:35:13.441Z,746
2016-11-10T10:36:13.420Z,745.67
2016-11-10T10:37:13.402Z,745.87
2016-11-10T10:38:13.409Z,745.29
2016-11-10T10:39:13.419Z,744.76
2016-11-10T10:40:13.425Z,745.12
2016-11-10T10:41:13.523Z,745.04
2016-11-10T10:42:13.419Z,745.33
2016-11-10T10:43:13.410Z,745.56
2016-11-10T10:44:13.450Z,745.83
2016-11-10T10:45:13.413Z,746.47
2016-11-10T10:46:13.429Z,746.44
2016-11-10T10:47:13.413Z,747.08
2016-11-10T10:48:13.414Z,748.02
2016-11-10T10:49:13.468Z,749.88
2016-11-10T10:50:13.423Z,750
2016-11-10T10:51:13.419Z,751.93
2016-11-10T10:52:13.418Z,752.5
2016-11-10T10:53:13.417Z,753.29
2016-11-10T10:54:13.426Z,754.73
2016-11-10T10:55:13.425Z,755.47
2016-11-10T10:56:13.409Z,755.65
2016-11-10T10:57:13.423Z,756.43
2016-11-10T10:58:13.428Z,757.57
2016-11-10T10:59:13.436Z,758.36
2016-11-10T11:00:13.420Z,759.62
2016-11-10T11:01:13.413Z,761.04
2016-11-10T11:02:13.435Z,762.11
2016-11-10T11:03:13.428Z,764
2016-11-10T11:04:13.447Z,765.4
2016-11-10T11:05:13.427Z,766.62
2016-11-10T11:06:13.429Z,768.36
2016-11-10T11:07:13.424Z,770.33
2016-11-10T11:08:13.436Z,771.43
2016-11-10T11:09:13.440Z,773.79
2016-11-10T11:10:13.429Z,775.18
2016-11-10T11:11:13.488Z,776.75
2016-11-10T11:12:13.440Z,777.93
2016-11-10T11:13:13.449Z,779.63
2016-11-10T11:14:13.448Z,780.68
2016-11-10T11:15:13.427Z,782.09
2016-11-10T11:16:13.448Z,783.45
2016-11-10T11:17:13.433Z,783.97
2016-11-10T11:18:13.440Z,784.73
2016-11-10T11:19:13.439Z,783.95
2016-11-10T11:20:13.440Z,783.54
2016-11-10T11:21:13.483Z,783.42
2016-11-10T11:22:13.430Z,782.59
2016-11-10T11:23:13.435Z,782.31
2016-11-10T11:24:13.455Z,781.34
2016-11-10T11:25:13.462Z,781.18
2016-11-10T11:26:13.503Z,781.48
2016-11-10T11:27:13.461Z,782.4
2016-11-10T11:28:13.441Z,782.94
2016-11-10T11:29:13.461Z,782.91
2016-11-10T11:30:13.441Z,783.76
2016-11-10T11:31:13.451Z,783.89
2016-11-10T11:32:13.460Z,784.21
2016-11-10T11:33:13.458Z,785.12
2016-11-10T11:34:13.468Z,785.98
2016-11-10T11:35:13.471Z,786.45
2016-11-10T11:36:13.453Z,787.19
2016-11-10T11:37:13.461Z,788.7
2016-11-10T11:38:13.496Z,790.74
2016-11-10T11:39:13.475Z,791.01
2016-11-10T11:40:13.458Z,792.15
2016-11-10T11:41:13.454Z,792.31
2016-11-10T11:42:13.464Z,792.74
2016-11-10T11:43:13.459Z,793.36
2016-11-10T11:44:13.509Z,795.02
2016-11-10T11:45:13.477Z,796.99
2016-11-10T11:46:13.477Z,798.36
2016-11-10T11:47:13.477Z,799.41
2016-11-10T11:48:13.458Z,800.29
2016-11-10T11:49:13.481Z,801.31
2016-11-10T11:50:13.452Z,801.17
2016-11-10T11:51:13.464Z,800.98
2016-11-10T11:52:13.458Z,800.57
2016-11-10T11:53:13.540Z,799.84
2016-11-10T11:54:13.485Z,799.1
2016-11-10T11:55:13.497Z,797.58
2016-11-10T11:56:13.465Z,796.71
2016-11-10T11:57:13.464Z,794.03
2016-11-10T11:58:13.461Z,792.55
2016-11-10T11:59:13.472Z,791.57
2016-11-10T12:00:13.471Z,790.52
2016-11-10T12:01:13.472Z,790.52
2016-11-10T12:02:13.479Z,790.33
2016-11-10T12:03:13.503Z,790.48
2016-11-10T12:04:13.494Z,789.69
2016-11-10T12:05:13.472Z,790.05
2016-11-10T12:06:13.469Z,789.62
2016-11-10T12:07:13.469Z,788.88
2016-11-10T12:08:13.468Z,788.22
2016-11-10T12:09:13.481Z,787.03
2016-11-10T12:10:13.482Z,786.48
2016-11-10T12:11:13.488Z,785.86
2016-11-10T12:12:13.494Z,786.06
2016-11-10T12:13:13.486Z,785.26
2016-11-10T12:14:13.511Z,785.02
2016-11-10T12:15:13.478Z,784.41
2016-11-10T12:16:13.479Z,783.1
2016-11-10T12:17:13.484Z,781.91
2016-11-10T12:18:13.488Z,781.15
2016-11-10T12:19:13.505Z,779.01
2016-11-10T12:20:13.495Z,777.87
2016-11-10T12:21:13.494Z,776.98
2016-11-10T12:22:13.496Z,776.3
2016-11-10T12:23:13.481Z,775.54
2016-11-10T12:24:13.539Z,774.63
2016-11-10T12:25:13.481Z,774.31
2016-11-10T12:26:13.490Z,774.45
2016-11-10T12:27:13.517Z,775.05
2016-11-10T12:28:13.487Z,775.51
2016-11-10T12:29:13.495Z,776.45
2016-11-10T12:30:13.487Z,777.51
2016-11-10T12:31:13.477Z,778.08
2016-11-10T12:32:13.497Z,779.79